createdAt,value
2019-03-05T00:00:55.842Z,5.02
2019-03-05T00:01:59.334Z,5.07
2019-03-05T00:03:02.833Z,5.09
2019-03-05T00:04:06.332Z,5.09
2019-03-05T00:05:10.690Z,5.02
2019-03-05T00:06:14.245Z,5.03
2019-03-05T00:07:17.677Z,5.09
2019-03-05T00:08:21.098Z,5.09
2019-03-05T00:09:24.596Z,5.07
2019-03-05T00:10:28.187Z,5.09
2019-03-05T00:11:31.613Z,5.07
2019-03-05T00:12:35.045Z,5.10
2019-03-05T00:13:38.653Z,5.10
2019-03-05T00:14:42.044Z,5.08
2019-03-05T00:15:46.297Z,5.12
2019-03-05T00:16:49.727Z,5.08
2019-03-05T00:17:53.216Z,5.06
2019-03-05T00:18:56.641Z,5.06
2019-03-05T00:20:00.129Z,5.07
2019-03-05T00:21:03.831Z,4.99
2019-03-05T00:22:07.497Z,5.02
2019-03-05T00:23:11.007Z,4.95
2019-03-05T00:24:50.549Z,4.97
2019-03-05T00:25:54.003Z,4.95
2019-03-05T00:26:57.437Z,5.00
2019-03-05T00:28:18.975Z,5.05
2019-03-05T00:29:31.303Z,5.07
2019-03-05T00:30:43.743Z,5.03
2019-03-05T00:31:50.534Z,4.94
2019-03-05T00:33:02.483Z,4.99
2019-03-05T00:34:08.960Z,5.05
2019-03-05T00:35:26.995Z,5.01
2019-03-05T00:36:42.096Z,4.96
2019-03-05T00:37:48.574Z,5.02
2019-03-05T00:39:14.125Z,5.00
2019-03-05T00:40:34.564Z,5.03
2019-03-05T00:42:03.098Z,5.02
2019-03-05T00:43:12.770Z,4.96
2019-03-05T00:44:43.064Z,4.93
2019-03-05T00:45:52.267Z,4.90
2019-03-05T00:47:14.765Z,4.94
2019-03-05T00:48:36.174Z,4.94
2019-03-05T00:49:45.105Z,4.96
2019-03-05T00:50:54.232Z,4.94
2019-03-05T00:52:12.694Z,4.88
2019-03-05T00:53:21.863Z,4.87
2019-03-05T00:54:43.113Z,4.89
2019-03-05T00:56:01.072Z,4.90
2019-03-05T00:57:40.511Z,4.84
2019-03-05T00:59:15.192Z,4.85
2019-03-05T01:00:42.148Z,4.89
2019-03-05T01:01:57.346Z,4.88
2019-03-05T01:03:21.631Z,4.91
2019-03-05T01:04:36.929Z,4.93
2019-03-05T01:05:48.914Z,4.88
2019-03-05T01:06:52.658Z,4.87
2019-03-05T01:07:56.813Z,4.90
2019-03-05T01:09:00.405Z,4.91
2019-03-05T01:10:05.553Z,4.84
2019-03-05T01:11:09.153Z,4.80
2019-03-05T01:12:14.351Z,4.77
2019-03-05T01:13:17.870Z,4.80
2019-03-05T01:14:23.061Z,4.78
2019-03-05T01:15:26.648Z,4.78
2019-03-05T01:16:31.792Z,4.82
2019-03-05T01:17:35.221Z,4.80
2019-03-05T01:18:38.703Z,4.82
2019-03-05T01:19:42.123Z,4.83
2019-03-05T01:20:45.638Z,4.78
2019-03-05T01:21:49.263Z,4.73
2019-03-05T01:22:52.769Z,4.81
2019-03-05T01:23:56.260Z,4.81
2019-03-05T01:24:59.760Z,4.79
2019-03-05T01:26:03.441Z,4.77
2019-03-05T01:27:07.110Z,4.81
2019-03-05T01:28:10.595Z,4.83
2019-03-05T01:29:14.099Z,4.85
2019-03-05T01:30:23.254Z,4.83
2019-03-05T01:31:34.218Z,4.78
2019-03-05T01:32:41.772Z,4.81
2019-03-05T01:33:55.628Z,4.84
2019-03-05T01:35:03.411Z,4.78
2019-03-05T01:36:11.604Z,4.79
2019-03-05T01:37:15.123Z,4.79
2019-03-05T01:38:18.555Z,4.80
2019-03-05T01:39:29.849Z,4.73
2019-03-05T01:40:35.046Z,4.77
2019-03-05T01:41:38.649Z,4.76
2019-03-05T01:42:42.119Z,4.78
2019-03-05T01:43:45.546Z,4.74
2019-03-05T01:44:49.037Z,4.74
2019-03-05T01:45:52.535Z,4.69
2019-03-05T01:46:56.000Z,4.71
2019-03-05T01:47:59.455Z,4.68
2019-03-05T01:49:02.885Z,4.71
2019-03-05T01:50:09.739Z,4.63
2019-03-05T01:51:13.167Z,4.64
2019-03-05T01:52:16.623Z,4.69
2019-03-05T01:53:20.047Z,4.69
2019-03-05T01:54:23.472Z,4.66
2019-03-05T01:55:26.896Z,4.66
2019-03-05T01:56:30.325Z,4.65
2019-03-05T01:57:33.761Z,4.63
2019-03-05T01:58:37.200Z,4.65
2019-03-05T01:59:40.620Z,4.62
2019-03-05T02:00:44.150Z,4.63
2019-03-05T02:01:47.579Z,4.64
2019-03-05T02:02:51.167Z,4.62
2019-03-05T02:03:54.612Z,4.64
2019-03-05T02:04:58.103Z,4.60
2019-03-05T02:06:01.589Z,4.59
2019-03-05T02:07:05.180Z,4.60
2019-03-05T02:08:08.764Z,4.60
2019-03-05T02:09:12.735Z,4.60
2019-03-05T02:10:18.464Z,4.60
2019-03-05T02:11:22.066Z,4.65
2019-03-05T02:12:25.490Z,4.59
2019-03-05T02:13:29.076Z,4.53
2019-03-05T02:14:32.568Z,4.54
2019-03-05T02:15:36.143Z,4.49
2019-03-05T02:16:39.611Z,4.53
2019-03-05T02:17:42.997Z,4.55
2019-03-05T02:18:46.426Z,4.52
2019-03-05T02:19:49.846Z,4.49
2019-03-05T02:20:53.276Z,4.55
2019-03-05T02:21:56.701Z,4.59
2019-03-05T02:23:05.940Z,4.56
2019-03-05T02:24:30.200Z,4.56
2019-03-05T02:25:42.209Z,4.56
2019-03-05T02:27:07.703Z,4.52
2019-03-05T02:28:30.623Z,4.57
2019-03-05T02:29:39.683Z,4.56
2019-03-05T02:31:05.643Z,4.62
2019-03-05T02:32:32.863Z,4.67
2019-03-05T02:33:44.942Z,4.71
2019-03-05T02:35:09.246Z,4.69
2019-03-05T02:36:34.423Z,4.68
2019-03-05T02:37:58.848Z,4.64
2019-03-05T02:39:31.975Z,4.67
2019-03-05T02:40:54.655Z,4.63
2019-03-05T02:42:17.427Z,4.61
2019-03-05T02:43:23.906Z,4.74
2019-03-05T02:44:38.839Z,4.76
2019-03-05T02:45:48.127Z,4.77
2019-03-05T02:47:00.285Z,4.80
2019-03-05T02:48:31.850Z,4.77
2019-03-05T02:49:43.918Z,4.81
2019-03-05T02:51:01.280Z,4.87
2019-03-05T02:52:13.694Z,4.89
2019-03-05T02:53:25.832Z,4.95
2019-03-05T02:54:41.186Z,5.00
2019-03-05T02:56:11.391Z,4.99
2019-03-05T02:57:13.661Z,4.92
2019-03-05T02:58:15.946Z,4.89
2019-03-05T02:59:18.221Z,4.93
2019-03-05T03:00:23.442Z,4.94
2019-03-05T03:01:28.520Z,4.96
2019-03-05T03:02:39.347Z,4.96
2019-03-05T03:03:44.474Z,4.99
2019-03-05T03:05:04.652Z,4.91
2019-03-05T03:06:09.882Z,4.91
2019-03-05T03:07:13.521Z,4.95
2019-03-05T03:08:17.023Z,4.99
2019-03-05T03:09:29.055Z,4.99
2019-03-05T03:10:32.578Z,4.97
2019-03-05T03:11:36.017Z,4.91
2019-03-05T03:12:39.510Z,4.88
2019-03-05T03:13:42.941Z,4.87
2019-03-05T03:14:46.366Z,4.86
2019-03-05T03:15:49.815Z,4.87
2019-03-05T03:16:53.308Z,4.85
2019-03-05T03:17:56.803Z,4.89
2019-03-05T03:19:00.231Z,4.91
2019-03-05T03:20:04.433Z,4.89
2019-03-05T03:21:07.901Z,4.89
2019-03-05T03:22:11.326Z,4.91
2019-03-05T03:23:14.765Z,4.94
2019-03-05T03:24:18.191Z,4.90
2019-03-05T03:25:22.058Z,4.95
2019-03-05T03:26:25.499Z,4.96
2019-03-05T03:27:28.953Z,4.90
2019-03-05T03:28:32.372Z,4.94
2019-03-05T03:29:35.810Z,4.94
2019-03-05T03:30:39.368Z,4.95
2019-03-05T03:31:42.855Z,4.90
2019-03-05T03:32:46.286Z,4.86
2019-03-05T03:33:49.820Z,4.85
2019-03-05T03:34:53.232Z,4.81
2019-03-05T03:35:56.677Z,4.78
2019-03-05T03:37:00.171Z,4.78
2019-03-05T03:38:03.743Z,4.76
2019-03-05T03:39:07.614Z,4.78
2019-03-05T03:40:13.880Z,4.79
2019-03-05T03:41:17.274Z,4.77
2019-03-05T03:42:20.859Z,4.78
2019-03-05T03:43:24.312Z,4.81
2019-03-05T03:44:27.742Z,4.80
2019-03-05T03:45:31.306Z,4.81
2019-03-05T03:46:34.740Z,4.87
2019-03-05T03:47:38.205Z,4.88
2019-03-05T03:48:41.625Z,4.89
2019-03-05T03:49:45.045Z,4.88
2019-03-05T03:50:48.473Z,4.91
2019-03-05T03:51:51.975Z,4.96
2019-03-05T03:52:55.560Z,5.01
2019-03-05T03:53:59.000Z,5.01
2019-03-05T03:55:02.430Z,4.97
2019-03-05T03:56:05.994Z,4.98
2019-03-05T03:57:09.523Z,5.02
2019-03-05T03:58:13.069Z,4.98
2019-03-05T03:59:16.641Z,5.00
2019-03-05T04:00:21.981Z,5.03
2019-03-05T04:01:25.481Z,5.03
2019-03-05T04:02:28.898Z,5.04
2019-03-05T04:03:32.583Z,5.01
2019-03-05T04:04:36.135Z,4.94
2019-03-05T04:05:39.574Z,4.99
2019-03-05T04:06:43.070Z,5.01
2019-03-05T04:07:46.572Z,5.01
2019-03-05T04:08:50.088Z,4.98
2019-03-05T04:09:53.515Z,4.98
2019-03-05T04:10:56.942Z,4.99
2019-03-05T04:12:00.388Z,4.94
2019-03-05T04:13:03.894Z,4.95
2019-03-05T04:14:07.487Z,4.91
2019-03-05T04:15:13.758Z,4.91
2019-03-05T04:16:17.190Z,4.98
2019-03-05T04:17:20.619Z,5.03
2019-03-05T04:18:24.113Z,4.98
2019-03-05T04:19:29.213Z,4.99
2019-03-05T04:20:33.292Z,5.05
2019-03-05T04:21:36.746Z,5.08
2019-03-05T04:22:40.247Z,4.99
2019-03-05T04:23:43.665Z,4.99
2019-03-05T04:24:47.109Z,5.04
2019-03-05T04:25:50.598Z,5.03
2019-03-05T04:26:54.024Z,5.09
2019-03-05T04:27:57.449Z,5.08
2019-03-05T04:29:00.881Z,5.07
2019-03-05T04:30:07.029Z,5.08
2019-03-05T04:31:10.482Z,5.11
2019-03-05T04:32:13.902Z,5.09
2019-03-05T04:33:17.334Z,5.12
2019-03-05T04:34:20.830Z,5.06
2019-03-05T04:35:24.272Z,5.07
2019-03-05T04:36:27.706Z,5.07
2019-03-05T04:37:31.131Z,5.04
2019-03-05T04:38:34.551Z,5.07
2019-03-05T04:39:37.991Z,5.05
2019-03-05T04:40:41.554Z,5.04
2019-03-05T04:41:45.066Z,5.07
2019-03-05T04:42:48.492Z,5.08
2019-03-05T04:43:51.917Z,5.10
2019-03-05T04:44:56.990Z,5.09
2019-03-05T04:46:02.108Z,5.10
2019-03-05T04:47:05.520Z,5.09
2019-03-05T04:48:09.016Z,5.07
2019-03-05T04:49:31.675Z,5.12
2019-03-05T04:50:39.562Z,5.14
2019-03-05T04:51:44.640Z,5.13
2019-03-05T04:52:48.077Z,5.06
2019-03-05T04:53:51.499Z,5.04
2019-03-05T04:54:54.927Z,5.08
2019-03-05T04:55:58.376Z,5.15
2019-03-05T04:57:01.893Z,5.16
2019-03-05T04:58:05.328Z,5.17
2019-03-05T04:59:08.749Z,5.18
2019-03-05T05:00:13.379Z,5.20
2019-03-05T05:01:16.800Z,5.18
2019-03-05T05:02:20.254Z,5.25
2019-03-05T05:03:23.687Z,5.27
2019-03-05T05:04:27.104Z,5.30
2019-03-05T05:05:30.657Z,5.29
2019-03-05T05:06:34.094Z,5.26
2019-03-05T05:07:37.631Z,5.27
2019-03-05T05:08:41.032Z,5.33
2019-03-05T05:09:44.466Z,5.30
2019-03-05T05:10:47.924Z,5.31
2019-03-05T05:11:51.388Z,5.26
2019-03-05T05:12:54.838Z,5.31
2019-03-05T05:13:58.260Z,5.32
2019-03-05T05:15:01.684Z,5.30
2019-03-05T05:16:05.247Z,5.31
2019-03-05T05:17:08.718Z,5.36
2019-03-05T05:18:12.345Z,5.40
2019-03-05T05:19:15.882Z,5.34
2019-03-05T05:20:19.347Z,5.28
2019-03-05T05:21:22.833Z,5.28
2019-03-05T05:22:26.291Z,5.25
2019-03-05T05:23:29.728Z,5.20
2019-03-05T05:24:33.157Z,5.16
2019-03-05T05:25:36.578Z,5.21
2019-03-05T05:26:40.003Z,5.18
2019-03-05T05:27:43.451Z,5.13
2019-03-05T05:28:46.871Z,5.12
2019-03-05T05:29:50.293Z,5.13
2019-03-05T05:30:53.731Z,5.12
2019-03-05T05:31:58.460Z,5.06
2019-03-05T05:33:02.079Z,5.07
2019-03-05T05:34:05.540Z,5.08
2019-03-05T05:35:08.974Z,5.06
2019-03-05T05:36:12.393Z,5.10
2019-03-05T05:37:15.904Z,5.09
2019-03-05T05:38:19.508Z,5.10
2019-03-05T05:39:58.922Z,5.09
2019-03-05T05:41:02.366Z,5.08
2019-03-05T05:42:05.925Z,5.09
2019-03-05T05:43:12.234Z,5.04
2019-03-05T05:44:15.678Z,5.06
2019-03-05T05:45:21.675Z,5.09
2019-03-05T05:46:25.187Z,5.07
2019-03-05T05:47:28.640Z,5.07
2019-03-05T05:48:32.058Z,5.07
2019-03-05T05:49:35.508Z,5.04
2019-03-05T05:50:39.017Z,5.01
2019-03-05T05:51:44.404Z,5.04
2019-03-05T05:52:47.755Z,5.08
2019-03-05T05:53:51.210Z,5.03
2019-03-05T05:54:54.625Z,5.04
2019-03-05T05:55:58.066Z,5.04
2019-03-05T05:57:01.485Z,5.07
2019-03-05T05:58:04.987Z,5.04
2019-03-05T05:59:08.436Z,5.03
2019-03-05T06:00:14.831Z,5.01
2019-03-05T06:01:18.319Z,5.05
2019-03-05T06:02:21.759Z,5.08
2019-03-05T06:03:25.249Z,5.06
2019-03-05T06:04:28.714Z,5.07
2019-03-05T06:05:32.132Z,5.07
2019-03-05T06:06:35.559Z,5.07
2019-03-05T06:07:39.051Z,5.08
2019-03-05T06:08:42.483Z,5.13
2019-03-05T06:09:45.926Z,5.16
2019-03-05T06:10:49.489Z,5.18
2019-03-05T06:11:52.902Z,5.22
2019-03-05T06:12:56.339Z,5.19
2019-03-05T06:13:59.762Z,5.16
2019-03-05T06:15:03.384Z,5.15
2019-03-05T06:16:06.912Z,5.13
2019-03-05T06:17:10.350Z,5.13
2019-03-05T06:18:13.845Z,5.10
2019-03-05T06:19:17.267Z,5.11
2019-03-05T06:20:20.754Z,5.10
2019-03-05T06:21:24.198Z,5.08
2019-03-05T06:22:27.630Z,5.09
2019-03-05T06:23:31.054Z,5.04
2019-03-05T06:24:34.484Z,5.04
2019-03-05T06:25:38.041Z,5.08
2019-03-05T06:26:41.467Z,5.08
2019-03-05T06:27:44.939Z,5.11
2019-03-05T06:28:48.345Z,5.15
2019-03-05T06:29:51.854Z,5.15
2019-03-05T06:30:55.298Z,5.11
2019-03-05T06:31:58.717Z,5.08
2019-03-05T06:33:02.142Z,5.07
2019-03-05T06:34:05.572Z,5.04
2019-03-05T06:35:09.937Z,5.07
2019-03-05T06:36:13.454Z,5.10
2019-03-05T06:37:16.951Z,5.06
2019-03-05T06:38:20.371Z,5.06
2019-03-05T06:39:23.802Z,5.04
2019-03-05T06:40:29.846Z,5.03
2019-03-05T06:41:33.302Z,5.03
2019-03-05T06:42:36.816Z,5.01
2019-03-05T06:43:40.338Z,4.99
2019-03-05T06:44:43.890Z,4.95
2019-03-05T06:45:47.365Z,4.98
2019-03-05T06:46:50.967Z,4.99
2019-03-05T06:47:54.410Z,4.97
2019-03-05T06:48:57.845Z,4.97
2019-03-05T06:50:01.349Z,4.98
2019-03-05T06:51:04.775Z,4.97
2019-03-05T06:52:08.297Z,4.96
2019-03-05T06:53:11.815Z,4.94
2019-03-05T06:54:15.238Z,4.94
2019-03-05T06:55:18.905Z,4.97
2019-03-05T06:56:22.337Z,4.96
2019-03-05T06:57:25.794Z,5.00
2019-03-05T06:58:29.297Z,4.99
2019-03-05T06:59:32.716Z,5.02
2019-03-05T07:00:40.352Z,4.99
2019-03-05T07:01:43.916Z,5.02
2019-03-05T07:02:47.521Z,4.97
2019-03-05T07:03:51.084Z,4.96
2019-03-05T07:04:57.094Z,4.97
2019-03-05T07:06:36.338Z,5.01
2019-03-05T07:07:39.889Z,4.98
2019-03-05T07:09:01.215Z,4.99
2019-03-05T07:10:13.648Z,5.00
2019-03-05T07:11:48.266Z,4.99
2019-03-05T07:12:54.126Z,4.99
2019-03-05T07:14:03.504Z,5.02
2019-03-05T07:15:32.135Z,5.07
2019-03-05T07:16:47.249Z,5.12
2019-03-05T07:18:17.692Z,5.22
2019-03-05T07:19:23.081Z,5.19
2019-03-05T07:20:45.809Z,5.13
2019-03-05T07:21:52.363Z,5.16
2019-03-05T07:23:13.639Z,5.17
2019-03-05T07:24:23.160Z,5.18
2019-03-05T07:25:26.723Z,5.17
2019-03-05T07:26:30.286Z,5.18
2019-03-05T07:27:33.804Z,5.22
2019-03-05T07:28:37.315Z,5.20
2019-03-05T07:29:40.952Z,5.22
2019-03-05T07:30:44.536Z,5.23
2019-03-05T07:31:48.035Z,5.22
2019-03-05T07:32:51.661Z,5.25
2019-03-05T07:33:55.107Z,5.24
2019-03-05T07:34:58.557Z,5.29
2019-03-05T07:36:01.984Z,5.37
2019-03-05T07:37:07.251Z,5.46
2019-03-05T07:38:10.773Z,5.50
2019-03-05T07:39:17.392Z,5.51
2019-03-05T07:40:21.007Z,5.48
2019-03-05T07:41:24.522Z,5.45
2019-03-05T07:42:27.956Z,5.42
2019-03-05T07:43:36.453Z,5.46
2019-03-05T07:44:36.560Z,5.49
2019-03-05T07:45:40.001Z,5.51
2019-03-05T07:46:43.485Z,5.51
2019-03-05T07:47:47.043Z,5.50
2019-03-05T07:48:50.472Z,5.49
2019-03-05T07:49:54.033Z,5.43
2019-03-05T07:50:57.487Z,5.49
2019-03-05T07:52:00.937Z,5.54
2019-03-05T07:53:04.506Z,5.55
2019-03-05T07:54:07.936Z,5.56
2019-03-05T07:55:14.250Z,5.56
2019-03-05T07:56:17.780Z,5.61
2019-03-05T07:57:21.386Z,5.62
2019-03-05T07:58:24.886Z,5.65
2019-03-05T07:59:28.385Z,5.66
2019-03-05T08:00:31.973Z,5.68
2019-03-05T08:01:35.400Z,5.74
2019-03-05T08:02:38.938Z,5.80
2019-03-05T08:03:42.488Z,5.84
2019-03-05T08:04:45.977Z,5.83
2019-03-05T08:05:49.491Z,5.88
2019-03-05T08:06:53.003Z,5.95
2019-03-05T08:07:56.614Z,5.95
2019-03-05T08:09:33.774Z,6.00
2019-03-05T08:10:37.325Z,6.06
2019-03-05T08:11:40.820Z,6.08
2019-03-05T08:12:53.274Z,6.00
2019-03-05T08:14:02.459Z,6.00
2019-03-05T08:15:14.490Z,6.01
2019-03-05T08:16:19.767Z,6.04
2019-03-05T08:17:23.990Z,6.09
2019-03-05T08:18:27.506Z,6.11
2019-03-05T08:19:31.057Z,6.05
2019-03-05T08:20:34.584Z,6.08
2019-03-05T08:21:38.013Z,6.13
2019-03-05T08:22:42.028Z,6.19
2019-03-05T08:23:48.240Z,6.22
2019-03-05T08:24:50.700Z,6.34
2019-03-05T08:25:54.125Z,6.38
2019-03-05T08:26:57.547Z,6.38
2019-03-05T08:28:00.993Z,6.41
2019-03-05T08:29:04.764Z,6.36
2019-03-05T08:30:14.963Z,6.34
2019-03-05T08:31:18.591Z,6.38
2019-03-05T08:32:22.013Z,6.46
2019-03-05T08:33:25.525Z,6.52
2019-03-05T08:34:28.946Z,6.48
2019-03-05T08:35:32.387Z,6.40
2019-03-05T08:36:35.800Z,6.42
2019-03-05T08:37:39.303Z,6.35
2019-03-05T08:38:42.890Z,6.31
2019-03-05T08:39:46.318Z,6.27
2019-03-05T08:40:49.733Z,6.29
2019-03-05T08:41:53.401Z,6.34
2019-03-05T08:42:56.826Z,6.44
2019-03-05T08:44:00.275Z,6.49
2019-03-05T08:45:04.335Z,6.50
2019-03-05T08:46:07.835Z,6.52
2019-03-05T08:47:11.399Z,6.46
2019-03-05T08:48:14.901Z,6.45
2019-03-05T08:49:18.363Z,6.50
2019-03-05T08:50:21.916Z,6.51
2019-03-05T08:51:25.415Z,6.53
2019-03-05T08:52:28.835Z,6.55
2019-03-05T08:53:32.388Z,6.61
2019-03-05T08:54:35.847Z,6.63
2019-03-05T08:55:39.272Z,6.67
2019-03-05T08:56:42.719Z,6.66
2019-03-05T08:57:46.161Z,6.50
2019-03-05T08:58:49.650Z,6.69
2019-03-05T08:59:53.123Z,6.66
2019-03-05T09:00:56.605Z,6.64
2019-03-05T09:02:00.031Z,6.73
2019-03-05T09:03:03.452Z,6.76
2019-03-05T09:04:06.970Z,6.82
2019-03-05T09:05:12.065Z,6.91
2019-03-05T09:06:15.571Z,6.98
2019-03-05T09:07:19.023Z,6.98
2019-03-05T09:08:22.600Z,7.03
2019-03-05T09:09:26.120Z,7.15
2019-03-05T09:10:30.019Z,7.11
2019-03-05T09:11:33.463Z,7.15
2019-03-05T09:12:37.308Z,7.20
2019-03-05T09:13:40.879Z,7.25
2019-03-05T09:14:44.329Z,7.26
2019-03-05T09:15:47.848Z,7.30
2019-03-05T09:16:51.272Z,7.17
2019-03-05T09:17:55.007Z,7.10
2019-03-05T09:18:58.428Z,7.13
2019-03-05T09:20:01.871Z,7.09
2019-03-05T09:21:05.550Z,7.06
2019-03-05T09:22:08.987Z,7.04
2019-03-05T09:23:12.483Z,7.03
2019-03-05T09:24:15.925Z,7.05
2019-03-05T09:25:19.643Z,7.04
2019-03-05T09:26:23.133Z,7.06
2019-03-05T09:27:26.632Z,7.10
2019-03-05T09:28:30.189Z,7.05
2019-03-05T09:29:33.609Z,7.08
2019-03-05T09:30:37.058Z,7.14
2019-03-05T09:31:40.483Z,7.18
2019-03-05T09:32:43.988Z,7.16
2019-03-05T09:33:47.433Z,7.15
2019-03-05T09:34:50.853Z,7.10
2019-03-05T09:35:54.363Z,7.15
2019-03-05T09:36:57.887Z,7.27
2019-03-05T09:38:01.315Z,7.38
2019-03-05T09:39:07.389Z,7.47
2019-03-05T09:40:16.740Z,7.61
2019-03-05T09:41:20.248Z,7.51
2019-03-05T09:42:23.818Z,7.41
2019-03-05T09:43:27.414Z,7.45
2019-03-05T09:44:30.844Z,7.55
2019-03-05T09:45:34.275Z,7.68
2019-03-05T09:46:37.717Z,7.64
2019-03-05T09:47:41.774Z,7.66
2019-03-05T09:48:45.189Z,7.54
2019-03-05T09:49:48.606Z,7.61
2019-03-05T09:50:52.030Z,7.73
2019-03-05T09:51:55.487Z,7.73
2019-03-05T09:52:59.036Z,7.72
2019-03-05T09:54:02.693Z,7.86
2019-03-05T09:55:12.335Z,7.92
2019-03-05T09:56:15.966Z,7.90
2019-03-05T09:57:19.430Z,7.97
2019-03-05T09:58:22.858Z,8.02
2019-03-05T09:59:26.283Z,8.08
2019-03-05T10:00:31.090Z,7.92
2019-03-05T10:01:34.741Z,7.94
2019-03-05T10:02:38.544Z,7.97
2019-03-05T10:03:42.036Z,8.14
2019-03-05T10:04:45.533Z,8.18
2019-03-05T10:05:48.959Z,8.08
2019-03-05T10:06:52.455Z,8.02
2019-03-05T10:07:55.999Z,7.95
2019-03-05T10:08:59.499Z,7.92
2019-03-05T10:10:03.257Z,7.81
2019-03-05T10:11:06.850Z,7.80
2019-03-05T10:12:10.420Z,7.89
2019-03-05T10:13:14.004Z,7.93
2019-03-05T10:14:17.442Z,7.87
2019-03-05T10:15:22.315Z,7.84
2019-03-05T10:16:25.750Z,7.97
2019-03-05T10:17:37.622Z,7.92
2019-03-05T10:18:34.568Z,7.90
2019-03-05T10:19:38.626Z,7.88
2019-03-05T10:20:42.401Z,7.75
2019-03-05T10:21:46.772Z,7.70
2019-03-05T10:22:50.812Z,7.74
2019-03-05T10:23:54.335Z,7.80
2019-03-05T10:25:05.670Z,7.81
2019-03-05T10:26:03.135Z,7.80
2019-03-05T10:27:06.635Z,7.83
2019-03-05T10:28:10.280Z,7.88
2019-03-05T10:29:13.794Z,7.92
2019-03-05T10:30:30.863Z,7.96
2019-03-05T10:31:34.383Z,7.90
2019-03-05T10:32:37.868Z,7.78
2019-03-05T10:33:41.429Z,7.75
2019-03-05T10:34:44.875Z,7.77
2019-03-05T10:35:48.740Z,7.82
2019-03-05T10:36:52.233Z,7.77
2019-03-05T10:38:00.732Z,7.89
2019-03-05T10:39:07.224Z,7.99
2019-03-05T10:40:16.303Z,7.88
2019-03-05T10:41:19.892Z,7.88
2019-03-05T10:42:23.402Z,7.83
2019-03-05T10:43:26.837Z,7.86
2019-03-05T10:44:30.542Z,7.91
2019-03-05T10:45:34.103Z,8.01
2019-03-05T10:46:37.686Z,7.93
2019-03-05T10:47:41.184Z,7.85
2019-03-05T10:48:44.768Z,7.85
2019-03-05T10:49:48.443Z,7.86
2019-03-05T10:50:52.353Z,7.94
2019-03-05T10:51:55.991Z,7.98
2019-03-05T10:52:59.556Z,7.91
2019-03-05T10:54:03.148Z,7.96
2019-03-05T10:55:09.812Z,7.99
2019-03-05T10:56:13.252Z,7.98
2019-03-05T10:57:16.836Z,8.08
2019-03-05T10:58:20.398Z,8.15
2019-03-05T10:59:23.836Z,8.18
2019-03-05T11:00:33.807Z,8.19
2019-03-05T11:01:37.625Z,8.03
2019-03-05T11:02:41.143Z,8.01
2019-03-05T11:03:44.637Z,8.02
2019-03-05T11:04:48.138Z,8.08
2019-03-05T11:05:51.890Z,8.13
2019-03-05T11:06:55.405Z,8.18
2019-03-05T11:07:59.291Z,8.28
2019-03-05T11:09:03.652Z,8.31
2019-03-05T11:10:12.766Z,8.33
2019-03-05T11:11:16.296Z,8.33
2019-03-05T11:12:19.853Z,8.40
2019-03-05T11:13:23.581Z,8.46
2019-03-05T11:14:27.136Z,8.54
2019-03-05T11:15:34.749Z,8.52
2019-03-05T11:16:38.246Z,8.54
2019-03-05T11:17:42.006Z,8.62
2019-03-05T11:18:45.586Z,8.74
2019-03-05T11:19:49.145Z,8.78
2019-03-05T11:20:52.647Z,8.80
2019-03-05T11:21:56.147Z,8.72
2019-03-05T11:22:59.588Z,8.71
2019-03-05T11:24:03.088Z,8.84
2019-03-05T11:25:09.589Z,8.94
2019-03-05T11:26:13.076Z,8.92
2019-03-05T11:27:16.579Z,8.96
2019-03-05T11:28:20.040Z,8.96
2019-03-05T11:29:23.544Z,9.03
2019-03-05T11:30:36.227Z,9.01
2019-03-05T11:31:34.005Z,8.92
2019-03-05T11:32:37.440Z,8.98
2019-03-05T11:33:40.960Z,9.00
2019-03-05T11:34:44.516Z,8.88
2019-03-05T11:35:48.203Z,8.93
2019-03-05T11:36:51.632Z,9.14
2019-03-05T11:37:55.192Z,9.40
2019-03-05T11:38:58.642Z,9.59
2019-03-05T11:40:02.134Z,9.42
2019-03-05T11:41:05.706Z,9.64
2019-03-05T11:42:09.141Z,9.77
2019-03-05T11:43:15.644Z,9.71
2019-03-05T11:44:19.241Z,9.87
2019-03-05T11:45:28.050Z,10.08
2019-03-05T11:46:31.551Z,10.08
2019-03-05T11:47:35.048Z,9.90
2019-03-05T11:48:38.815Z,9.71
2019-03-05T11:49:42.326Z,9.45
2019-03-05T11:50:45.929Z,9.54
2019-03-05T11:51:49.534Z,9.52
2019-03-05T11:52:53.849Z,9.50
2019-03-05T11:53:57.332Z,9.47
2019-03-05T11:55:00.868Z,9.36
2019-03-05T11:56:04.440Z,9.50
2019-03-05T11:57:07.899Z,9.85
2019-03-05T11:58:11.520Z,9.84
2019-03-05T11:59:14.935Z,9.72
2019-03-05T12:00:25.232Z,9.85
2019-03-05T12:01:30.331Z,9.99
2019-03-05T12:02:33.756Z,10.08
2019-03-05T12:03:37.258Z,10.19
2019-03-05T12:04:40.776Z,9.91
2019-03-05T12:05:44.410Z,9.92
2019-03-05T12:06:47.926Z,9.88
2019-03-05T12:07:51.525Z,10.18
2019-03-05T12:08:54.958Z,10.35
2019-03-05T12:09:58.497Z,10.51
2019-03-05T12:11:02.053Z,10.54
2019-03-05T12:12:05.554Z,10.65
2019-03-05T12:13:09.147Z,10.59
2019-03-05T12:14:12.602Z,10.40
2019-03-05T12:15:24.237Z,10.46
2019-03-05T12:16:27.708Z,10.44
2019-03-05T12:17:31.178Z,10.43
2019-03-05T12:18:34.692Z,10.73
2019-03-05T12:19:38.126Z,10.64
2019-03-05T12:20:41.722Z,11.01
2019-03-05T12:21:45.215Z,11.30
2019-03-05T12:22:48.782Z,11.43
2019-03-05T12:23:52.206Z,11.48
2019-03-05T12:24:57.609Z,11.75
2019-03-05T12:26:00.827Z,11.75
2019-03-05T12:27:04.331Z,11.30
2019-03-05T12:28:10.567Z,11.38
2019-03-05T12:29:13.149Z,11.43
2019-03-05T12:30:27.409Z,11.51
2019-03-05T12:31:31.017Z,11.32
2019-03-05T12:32:34.529Z,10.85
2019-03-05T12:33:38.033Z,10.63
2019-03-05T12:34:41.574Z,10.33
2019-03-05T12:35:45.204Z,10.36
2019-03-05T12:36:48.678Z,10.36
2019-03-05T12:37:52.299Z,10.88
2019-03-05T12:38:55.895Z,10.96
2019-03-05T12:39:59.297Z,10.65
2019-03-05T12:41:02.824Z,10.61
2019-03-05T12:42:06.399Z,10.99
2019-03-05T12:43:09.972Z,11.05
2019-03-05T12:44:13.418Z,11.12
2019-03-05T12:45:18.005Z,11.13
2019-03-05T12:46:21.591Z,11.17
2019-03-05T12:47:25.118Z,11.67
2019-03-05T12:48:39.282Z,11.70
2019-03-05T12:49:34.005Z,11.23
2019-03-05T12:50:38.280Z,11.28
2019-03-05T12:51:41.707Z,11.44
2019-03-05T12:52:46.459Z,11.37
2019-03-05T12:53:49.937Z,11.14
2019-03-05T12:54:53.366Z,10.90
2019-03-05T12:55:56.798Z,11.04
2019-03-05T12:57:00.351Z,10.91
2019-03-05T12:58:03.870Z,11.06
2019-03-05T12:59:08.356Z,11.11
2019-03-05T13:00:17.617Z,11.00
2019-03-05T13:01:23.955Z,10.42
2019-03-05T13:02:27.495Z,10.09
2019-03-05T13:03:31.035Z,10.24
2019-03-05T13:04:34.596Z,10.27
2019-03-05T13:05:38.180Z,10.18
2019-03-05T13:06:41.610Z,10.24
2019-03-05T13:07:45.107Z,10.19
2019-03-05T13:08:48.564Z,10.18
2019-03-05T13:09:52.571Z,10.07
2019-03-05T13:10:57.223Z,9.98
2019-03-05T13:12:00.665Z,9.86
2019-03-05T13:13:04.232Z,9.73
2019-03-05T13:14:12.076Z,9.58
2019-03-05T13:15:30.773Z,9.44
2019-03-05T13:16:35.263Z,9.42
2019-03-05T13:17:39.500Z,9.47
2019-03-05T13:18:43.007Z,9.49
2019-03-05T13:19:48.047Z,9.49
2019-03-05T13:20:51.633Z,9.55
2019-03-05T13:21:55.128Z,9.57
2019-03-05T13:22:58.740Z,9.44
2019-03-05T13:24:10.042Z,9.37
2019-03-05T13:25:14.362Z,9.46
2019-03-05T13:26:17.804Z,9.36
2019-03-05T13:27:22.860Z,9.49
2019-03-05T13:28:26.469Z,9.44
2019-03-05T13:29:30.107Z,9.45
2019-03-05T13:30:33.965Z,9.49
2019-03-05T13:31:38.757Z,9.42
2019-03-05T13:32:42.858Z,9.49
2019-03-05T13:33:46.345Z,9.56
2019-03-05T13:34:49.907Z,9.61
2019-03-05T13:35:53.391Z,9.71
2019-03-05T13:36:56.813Z,9.66
2019-03-05T13:38:10.316Z,9.47
2019-03-05T13:39:18.141Z,9.40
2019-03-05T13:40:24.191Z,9.39
2019-03-05T13:41:27.767Z,9.39
2019-03-05T13:42:33.284Z,9.36
2019-03-05T13:43:36.493Z,9.38
2019-03-05T13:44:39.951Z,9.36
2019-03-05T13:45:49.187Z,9.45
2019-03-05T13:46:48.808Z,9.58
2019-03-05T13:48:20.523Z,9.58
2019-03-05T13:49:24.991Z,9.66
2019-03-05T13:50:36.899Z,9.54
2019-03-05T13:52:01.478Z,9.48
2019-03-05T13:53:14.880Z,9.65
2019-03-05T13:54:30.908Z,9.67
2019-03-05T13:55:37.389Z,9.63
2019-03-05T13:56:44.042Z,9.68
2019-03-05T13:57:51.332Z,9.74
2019-03-05T13:59:30.078Z,9.65
2019-03-05T14:00:33.580Z,9.75
2019-03-05T14:01:37.193Z,9.74
2019-03-05T14:03:00.708Z,9.71
2019-03-05T14:04:07.596Z,9.59
2019-03-05T14:05:16.797Z,9.67
2019-03-05T14:06:23.312Z,9.65
2019-03-05T14:07:58.352Z,9.64
2019-03-05T14:09:13.339Z,9.66
2019-03-05T14:10:17.031Z,9.62
2019-03-05T14:11:20.607Z,9.40
2019-03-05T14:12:24.112Z,9.58
2019-03-05T14:13:27.613Z,9.58
2019-03-05T14:14:31.191Z,9.54
2019-03-05T14:15:34.917Z,9.58
2019-03-05T14:16:38.350Z,9.48
2019-03-05T14:17:42.530Z,9.50
2019-03-05T14:18:46.048Z,9.49
2019-03-05T14:19:49.625Z,9.49
2019-03-05T14:20:53.222Z,9.55
2019-03-05T14:21:56.732Z,9.50
2019-03-05T14:23:00.246Z,9.48
2019-03-05T14:24:03.737Z,9.54
2019-03-05T14:25:10.470Z,9.57
2019-03-05T14:26:13.983Z,9.50
2019-03-05T14:27:17.651Z,9.46
2019-03-05T14:28:21.179Z,9.43
2019-03-05T14:29:24.680Z,9.46
2019-03-05T14:30:28.410Z,9.50
2019-03-05T14:31:31.957Z,9.41
2019-03-05T14:32:35.446Z,9.41